Time;durP1;ratioP1;P1;durP2;ratioP2;P2;SDS_P1;SDS_P2;PMS_P1;PMS_P2;Temp;Humidity;BMP_temperature;BMP_pressure;BME280_temperature;BME280_humidity;BME280_pressure;Samples;Min_cycle;Max_cycle;Signal;HPM_P1;HPM_P2
2022/11/12 00:02:26;;;;;;;1.43;1.27;;;;;6.50;95495.00;;;;7394807;19;20136;-75
2022/11/12 00:05:00;;;;;;;1.97;1.30;;;;;6.40;95493.00;;;;7396503;19;20153;-75
2022/11/12 00:07:27;;;;;;;2.37;1.40;;;;;6.60;95498.00;;;;7399856;19;20167;-76
2022/11/12 00:09:55;;;;;;;4.23;1.50;;;;;6.70;95495.00;;;;7397608;19;20129;-75
2022/11/12 00:12:29;;;;;;;1.37;1.10;;;;;6.50;95492.00;;;;7394498;19;20128;-75
2022/11/12 00:14:56;;;;;;;1.53;1.10;;;;;6.40;95490.00;;;;7395816;19;20125;-75
2022/11/12 00:17:24;;;;;;;2.30;1.10;;;;;6.30;95482.00;;;;7393338;19;20623;-76
2022/11/12 00:19:58;;;;;;;1.30;1.10;;;;;6.20;95489.00;;;;7394810;19;20143;-75
2022/11/12 00:22:25;;;;;;;1.57;1.20;;;;;6.10;95482.00;;;;7395453;19;20121;-75
2022/11/12 00:24:53;;;;;;;3.50;1.20;;;;;6.10;95484.00;;;;7399626;19;20613;-75
2022/11/12 00:27:27;;;;;;;2.03;1.33;;;;;6.10;95468.00;;;;7396112;19;20163;-75
2022/11/12 00:29:54;;;;;;;1.77;1.40;;;;;6.10;95477.00;;;;7395320;19;20121;-75
2022/11/12 00:32:22;;;;;;;1.53;1.43;;;;;6.20;95488.00;;;;7394016;19;20476;-75
2022/11/12 00:34:56;;;;;;;1.40;1.27;;;;;6.20;95480.00;;;;7395632;19;20151;-76
2022/11/12 00:37:28;;;;;;;2.03;1.67;;;;;6.50;95480.00;;;;7397727;19;20147;-76
2022/11/12 00:39:56;;;;;;;3.00;1.77;;;;;6.90;95480.00;;;;7395527;19;20156;-76
2022/11/12 00:42:30;;;;;;;2.90;1.60;;;;;6.90;95477.00;;;;7395100;19;20133;-75
2022/11/12 00:44:57;;;;;;;2.27;1.60;;;;;6.80;95469.00;;;;7395545;19;20160;-76
2022/11/12 00:47:25;;;;;;;3.30;1.43;;;;;7.10;95477.00;;;;7394785;19;20157;-76
2022/11/12 00:49:59;;;;;;;2.07;1.37;;;;;7.40;95476.00;;;;7396207;19;20165;-76
2022/11/12 00:52:26;;;;;;;2.47;1.27;;;;;7.60;95466.00;;;;7388794;19;20167;-76
2022/11/12 00:54:54;;;;;;;1.50;1.37;;;;;7.90;95474.00;;;;7392692;19;20144;-76
2022/11/12 00:57:28;;;;;;;1.23;1.13;;;;;8.30;95465.00;;;;7393958;19;20171;-77
2022/11/12 01:00:01;;;;;;;2.30;1.00;;;;;8.10;95470.00;;;;7393997;19;20155;-76
2022/11/12 01:02:36;;;;;;;1.20;1.10;;;;;7.90;95472.00;;;;7395603;19;20152;-76
2022/11/12 01:05:11;;;;;;;1.30;1.20;;;;;7.90;95472.00;;;;7396141;19;20606;-76
2022/11/12 01:07:45;;;;;;;1.60;0.97;;;;;7.90;95467.00;;;;7396595;19;20604;-76
2022/11/12 01:10:19;;;;;;;2.30;1.30;;;;;8.10;95471.00;;;;7394756;19;20205;-75
2022/11/12 01:12:54;;;;;;;2.43;1.00;;;;;8.40;95472.00;;;;7396296;19;20128;-76
2022/11/12 01:15:21;;;;;;;1.73;1.00;;;;;8.60;95464.00;;;;7395531;19;20618;-76
2022/11/12 01:17:49;;;;;;;2.83;1.10;;;;;8.80;95458.00;;;;7392965;19;20125;-77
2022/11/12 01:20:23;;;;;;;0.90;0.90;;;;;8.90;95461.00;;;;7393427;19;20214;-76
2022/11/12 01:22:50;;;;;;;1.33;1.10;;;;;9.20;95459.00;;;;7395827;19;20603;-76
2022/11/12 01:25:18;;;;;;;0.80;0.80;;;;;9.40;95444.00;;;;7394400;19;20738;-77
2022/11/12 01:27:52;;;;;;;1.13;0.90;;;;;9.50;95451.00;;;;7394622;19;20152;-76
2022/11/12 01:30:19;;;;;;;1.40;0.90;;;;;9.20;95451.00;;;;7393549;19;20662;-76
2022/11/12 01:32:47;;;;;;;1.50;1.10;;;;;8.90;95447.00;;;;7394450;19;20149;-76
2022/11/12 01:35:21;;;;;;;0.90;0.90;;;;;8.50;95453.00;;;;7392288;19;20133;-76
2022/11/12 01:37:48;;;;;;;1.13;1.00;;;;;8.10;95441.00;;;;7397314;19;20169;-76
2022/11/12 01:40:16;;;;;;;1.17;0.93;;;;;8.10;95434.00;;;;7393840;19;20144;-76
2022/11/12 01:42:53;;;;;;;2.27;1.10;;;;;8.10;95432.00;;;;7394051;19;20158;-76
2022/11/12 01:45:21;;;;;;;1.43;1.23;;;;;8.10;95434.00;;;;7392285;19;20133;-75
2022/11/12 01:47:51;;;;;;;1.33;1.07;;;;;8.00;95438.00;;;;7394984;19;20142;-76
2022/11/12 01:50:32;;;;;;;1.17;1.07;;;;;8.00;95432.00;;;;7392442;19;20147;-76
2022/11/12 01:53:05;;;;;;;1.10;1.00;;;;;8.00;95433.00;;;;7393497;19;20121;-76
2022/11/12 01:55:39;;;;;;;1.53;0.83;;;;;7.90;95429.00;;;;7396654;19;20156;-76
2022/11/12 01:58:13;;;;;;;1.07;0.97;;;;;7.70;95421.00;;;;7395788;19;20140;-77
2022/11/12 02:00:54;;;;;;;1.10;1.00;;;;;7.70;95431.00;;;;7392259;19;20144;-75
2022/11/12 02:03:23;;;;;;;0.90;0.90;;;;;7.50;95423.00;;;;7394323;19;20156;-75
2022/11/12 02:06:03;;;;;;;0.70;0.70;;;;;7.60;95417.00;;;;7398014;19;20612;-75
2022/11/12 02:08:31;;;;;;;0.93;0.80;;;;;7.60;95417.00;;;;7391276;19;20922;-75
2022/11/12 02:11:13;;;;;;;1.30;0.97;;;;;7.60;95414.00;;;;7394054;19;20159;-75
2022/11/12 02:13:58;;;;;;;0.60;0.60;;;;;7.50;95410.00;;;;7395910;19;20192;-75
2022/11/12 02:16:39;;;;;;;1.03;0.93;;;;;7.40;95416.00;;;;7391907;19;20129;-75
2022/11/12 02:19:09;;;;;;;4.73;0.90;;;;;7.60;95408.00;;;;7391392;19;20125;-75
2022/11/12 02:21:44;;;;;;;0.70;0.70;;;;;7.80;95417.00;;;;7394969;19;20675;-75
2022/11/12 02:24:11;;;;;;;1.07;1.00;;;;;7.70;95402.00;;;;7390542;19;20144;-75
2022/11/12 02:26:45;;;;;;;1.27;0.97;;;;;7.80;95408.00;;;;7393851;19;20679;-75
2022/11/12 02:29:19;;;;;;;0.90;0.60;;;;;7.60;95406.00;;;;7391404;19;20152;-75
2022/11/12 02:31:47;;;;;;;1.90;0.77;;;;;7.40;95406.00;;;;7392815;19;20521;-75
2022/11/12 02:34:15;;;;;;;0.70;0.70;;;;;7.40;95408.00;;;;7390703;19;20125;-75
2022/11/12 02:36:49;;;;;;;0.73;0.70;;;;;7.60;95392.00;;;;7394926;19;20148;-75
2022/11/12 02:39:17;;;;;;;1.20;0.67;;;;;8.10;95409.00;;;;7392171;19;20210;-75
2022/11/12 02:41:45;;;;;;;1.90;0.67;;;;;8.20;95394.00;;;;7394470;19;20611;-76
2022/11/12 02:44:19;;;;;;;2.50;0.83;;;;;8.00;95393.00;;;;7394308;19;20229;-75
2022/11/12 02:46:46;;;;;;;0.60;0.60;;;;;8.10;95390.00;;;;7392005;19;20588;-75
2022/11/12 02:49:14;;;;;;;0.70;0.70;;;;;8.20;95397.00;;;;7392771;19;20635;-75
2022/11/12 02:51:48;;;;;;;0.83;0.80;;;;;8.30;95390.00;;;;7392306;19;20185;-75
2022/11/12 02:54:15;;;;;;;0.67;0.57;;;;;8.30;95394.00;;;;7393579;19;20203;-75
2022/11/12 02:56:43;;;;;;;0.80;0.80;;;;;8.30;95397.00;;;;7392415;19;20642;-75
2022/11/12 02:59:23;;;;;;;0.90;0.60;;;;;8.00;95392.00;;;;7389110;19;20602;-75
2022/11/12 03:01:51;;;;;;;3.87;0.90;;;;;7.70;95391.00;;;;7391296;19;20137;-75
2022/11/12 03:04:25;;;;;;;0.70;0.60;;;;;7.90;95388.00;;;;7390782;19;20160;-76
2022/11/12 03:06:52;;;;;;;0.87;0.80;;;;;7.90;95399.00;;;;7392518;19;20141;-75
2022/11/12 03:09:20;;;;;;;1.33;1.00;;;;;8.10;95402.00;;;;7394627;19;20213;-75
2022/11/12 03:11:54;;;;;;;1.00;0.90;;;;;8.20;95406.00;;;;7394389;19;20168;-75
2022/11/12 03:14:21;;;;;;;0.67;0.60;;;;;7.90;95397.00;;;;7394165;19;20188;-76
2022/11/12 03:16:49;;;;;;;0.67;0.60;;;;;7.50;95407.00;;;;7387452;19;20156;-75
2022/11/12 03:19:23;;;;;;;0.83;0.70;;;;;7.40;95410.00;;;;7393526;19;20185;-76
2022/11/12 03:21:50;;;;;;;0.77;0.70;;;;;7.40;95410.00;;;;7393137;19;20196;-75
2022/11/12 03:24:18;;;;;;;0.57;0.57;;;;;7.40;95409.00;;;;7391975;19;20238;-75
2022/11/12 03:26:52;;;;;;;1.23;0.93;;;;;7.40;95412.00;;;;7392032;19;20515;-76
2022/11/12 03:29:19;;;;;;;1.47;0.87;;;;;7.30;95403.00;;;;7393493;19;20243;-75
2022/11/12 03:31:47;;;;;;;0.87;0.70;;;;;7.20;95399.00;;;;7391082;19;20666;-75
2022/11/12 03:34:21;;;;;;;1.43;1.10;;;;;7.40;95397.00;;;;7390176;19;20121;-75
2022/11/12 03:36:48;;;;;;;0.70;0.70;;;;;7.40;95398.00;;;;7391763;19;20137;-75
2022/11/12 03:39:16;;;;;;;0.80;0.80;;;;;7.50;95394.00;;;;7390133;19;20620;-75
2022/11/12 03:41:51;;;;;;;0.70;0.70;;;;;7.50;95394.00;;;;7392443;19;20139;-75
2022/11/12 03:44:19;;;;;;;1.10;1.00;;;;;7.40;95397.00;;;;7391609;19;20164;-75
2022/11/12 03:46:46;;;;;;;1.20;1.10;;;;;7.70;95396.00;;;;7389366;19;20200;-75
2022/11/12 03:49:20;;;;;;;1.93;0.90;;;;;7.40;95394.00;;;;7389825;19;20127;-75
2022/11/12 03:51:47;;;;;;;0.87;0.87;;;;;7.50;95398.00;;;;7392541;19;20200;-75
2022/11/12 03:54:15;;;;;;;2.07;0.97;;;;;7.60;95395.00;;;;7390757;19;20121;-75
2022/11/12 03:56:49;;;;;;;0.90;0.90;;;;;7.90;95395.00;;;;7389949;19;20160;-75
2022/11/12 03:59:23;;;;;;;1.27;1.03;;;;;8.10;95393.00;;;;7388068;19;20174;-75
2022/11/12 04:01:57;;;;;;;1.20;1.10;;;;;8.00;95394.00;;;;7387424;19;20631;-75
2022/11/12 04:08:34;;;;;;;2.00;1.07;;;;;7.80;95404.00;;;;7388098;19;20156;-75
2022/11/12 04:10:04;;;;;;;1.27;1.17;;;;;7.80;95403.00;;;;7402097;19;20132;-75
2022/11/12 04:15:27;;;;;;;1.53;1.23;;;;;8.50;95402.00;;;;7398523;19;20623;-75
2022/11/12 04:23:41;;;;;;;1.13;1.03;;;;;8.50;95397.00;;;;7394835;19;20159;-76
2022/11/12 04:26:23;;;;;;;1.67;1.20;;;;;8.50;95397.00;;;;7395848;19;20300;-75
2022/11/12 04:31:43;;;;;;;1.73;1.30;;;;;8.80;95396.00;;;;7396814;19;20152;-75
2022/11/12 04:34:29;;;;;;;2.23;1.13;;;;;8.80;95403.00;;;;7396546;19;20598;-75
2022/11/12 04:36:56;;;;;;;1.10;1.00;;;;;8.70;95396.00;;;;7397010;19;20512;-75
2022/11/12 04:39:30;;;;;;;0.93;0.93;;;;;8.70;95391.00;;;;7398540;19;20173;-75
2022/11/12 04:47:47;;;;;;;1.57;1.40;;;;;8.40;95407.00;;;;7391528;19;20156;-75
2022/11/12 04:50:21;;;;;;;1.40;1.13;;;;;8.30;95404.00;;;;7394424;19;20143;-75
2022/11/12 04:52:48;;;;;;;2.70;1.20;;;;;8.20;95402.00;;;;7394845;19;20157;-75
2022/11/12 04:55:16;;;;;;;3.20;1.20;;;;;8.10;95400.00;;;;7396710;19;20224;-75
2022/11/12 04:57:50;;;;;;;1.30;1.20;;;;;8.00;95401.00;;;;7396512;19;20144;-75
2022/11/12 05:00:32;;;;;;;2.37;1.10;;;;;7.90;95397.00;;;;7393845;19;20190;-75
2022/11/12 05:03:13;;;;;;;0.77;0.77;;;;;7.90;95385.00;;;;7398348;19;20152;-75
2022/11/12 05:05:40;;;;;;;1.10;1.00;;;;;8.10;95389.00;;;;7396368;19;20180;-75
2022/11/12 05:08:14;;;;;;;1.40;1.10;;;;;8.10;95390.00;;;;7394746;19;20117;-75
2022/11/12 05:10:43;;;;;;;3.37;1.13;;;;;8.00;95385.00;;;;7395363;19;20203;-75
2022/11/12 05:13:10;;;;;;;1.00;0.90;;;;;8.20;95396.00;;;;7395205;19;20125;-75
2022/11/12 05:15:44;;;;;;;2.23;0.97;;;;;7.90;95392.00;;;;7395567;19;20156;-74
2022/11/12 05:18:11;;;;;;;1.10;0.93;;;;;8.00;95391.00;;;;7388573;19;20482;-74
2022/11/12 05:20:39;;;;;;;2.30;0.93;;;;;8.10;95392.00;;;;7391763;19;20141;-74
2022/11/12 05:23:13;;;;;;;0.80;0.77;;;;;8.00;95385.00;;;;7391810;19;20128;-75
2022/11/12 05:25:40;;;;;;;1.97;0.90;;;;;7.90;95390.00;;;;7396374;19;20135;-76
2022/11/12 05:28:08;;;;;;;1.43;1.07;;;;;7.90;95390.00;;;;7393756;19;20137;-75
2022/11/12 05:30:42;;;;;;;2.50;0.90;;;;;7.90;95386.00;;;;7391559;19;20230;-75
2022/11/12 05:33:09;;;;;;;0.90;0.90;;;;;7.70;95394.00;;;;7394860;19;20147;-75
2022/11/12 05:35:37;;;;;;;0.63;0.63;;;;;7.80;95393.00;;;;7399074;19;20143;-75
2022/11/12 05:38:11;;;;;;;0.90;0.90;;;;;7.70;95389.00;;;;7392629;19;20583;-75
2022/11/12 05:40:54;;;;;;;0.70;0.70;;;;;7.70;95390.00;;;;7393938;19;20220;-75
2022/11/12 05:43:35;;;;;;;0.80;0.80;;;;;7.80;95393.00;;;;7392791;19;20129;-75
2022/11/12 05:46:02;;;;;;;1.70;0.93;;;;;7.80;95397.00;;;;7396821;19;20665;-75
2022/11/12 05:48:36;;;;;;;0.97;0.80;;;;;8.00;95396.00;;;;7391734;19;20133;-75
2022/11/12 05:51:03;;;;;;;0.80;0.80;;;;;8.40;95395.00;;;;7393719;19;20133;-75
2022/11/12 05:53:41;;;;;;;0.70;0.70;;;;;8.50;95393.00;;;;7393276;19;20581;-75
2022/11/12 05:56:15;;;;;;;0.70;0.70;;;;;8.80;95403.00;;;;7393015;19;20135;-75
2022/11/12 05:58:49;;;;;;;0.70;0.70;;;;;8.90;95401.00;;;;7392216;19;20148;-74
2022/11/12 06:01:30;;;;;;;0.77;0.73;;;;;9.00;95397.00;;;;7391659;19;20212;-74
2022/11/12 06:03:57;;;;;;;0.70;0.70;;;;;8.90;95401.00;;;;7394540;19;20148;-74
2022/11/12 06:06:31;;;;;;;0.80;0.80;;;;;8.70;95406.00;;;;7393678;19;20129;-74
2022/11/12 06:08:58;;;;;;;0.80;0.80;;;;;8.60;95410.00;;;;7392320;19;20133;-75
2022/11/12 06:11:26;;;;;;;0.63;0.63;;;;;8.20;95424.00;;;;7393755;19;20152;-75
2022/11/12 06:14:00;;;;;;;1.53;0.93;;;;;7.90;95415.00;;;;7394064;19;20132;-74
2022/11/12 06:16:29;;;;;;;1.80;0.70;;;;;7.50;95422.00;;;;7390099;19;20201;-75
2022/11/12 06:18:56;;;;;;;2.97;1.20;;;;;7.20;95424.00;;;;7384678;19;20157;-75
2022/11/12 06:21:30;;;;;;;0.93;0.70;;;;;7.00;95431.00;;;;7391650;19;20164;-74
2022/11/12 06:23:58;;;;;;;0.70;0.70;;;;;6.90;95431.00;;;;7390861;19;20642;-74
2022/11/12 06:26:28;;;;;;;0.97;0.87;;;;;6.90;95435.00;;;;7391353;19;20630;-74
2022/11/12 06:29:02;;;;;;;2.43;0.97;;;;;6.80;95431.00;;;;7390470;19;20642;-74
2022/11/12 06:31:29;;;;;;;1.30;0.80;;;;;6.60;95440.00;;;;7390309;19;20184;-74
2022/11/12 06:33:57;;;;;;;0.87;0.87;;;;;6.70;95446.00;;;;7393311;19;20152;-75
2022/11/12 06:36:31;;;;;;;0.67;0.67;;;;;6.60;95440.00;;;;7391835;19;20147;-74
2022/11/12 06:38:58;;;;;;;1.10;1.00;;;;;6.70;95448.00;;;;7392950;19;20163;-74
2022/11/12 06:41:26;;;;;;;1.07;0.73;;;;;6.60;95444.00;;;;7392819;19;20495;-74
2022/11/12 06:44:02;;;;;;;0.70;0.70;;;;;6.60;95441.00;;;;7389918;19;20135;-74
2022/11/12 06:46:29;;;;;;;1.63;0.97;;;;;6.50;95438.00;;;;7390937;19;20650;-74
2022/11/12 06:48:57;;;;;;;0.80;0.80;;;;;6.70;95435.00;;;;7389168;19;20144;-74
2022/11/12 06:51:31;;;;;;;0.50;0.50;;;;;6.80;95433.00;;;;7388458;19;20161;-74
2022/11/12 06:53:58;;;;;;;0.77;0.77;;;;;6.90;95438.00;;;;7393926;19;20172;-74
2022/11/12 06:56:26;;;;;;;2.80;0.87;;;;;7.10;95437.00;;;;7394310;19;20166;-74
2022/11/12 06:59:07;;;;;;;0.97;0.80;;;;;7.10;95432.00;;;;7389573;19;20137;-74
2022/11/12 07:01:41;;;;;;;0.63;0.63;;;;;7.10;95439.00;;;;7391339;19;20592;-74
2022/11/12 07:04:15;;;;;;;2.43;0.80;;;;;7.00;95443.00;;;;7394019;19;20584;-74
2022/11/12 07:06:43;;;;;;;1.20;0.80;;;;;7.10;95435.00;;;;7388289;19;20722;-74
2022/11/12 07:09:10;;;;;;;0.97;0.87;;;;;7.00;95440.00;;;;7389290;19;20173;-74
2022/11/12 07:11:44;;;;;;;0.93;0.70;;;;;7.20;95434.00;;;;7394258;19;20208;-75
2022/11/12 07:14:12;;;;;;;0.80;0.80;;;;;7.40;95434.00;;;;7393071;19;20168;-75
2022/11/12 07:16:40;;;;;;;0.80;0.80;;;;;7.60;95430.00;;;;7390084;19;20148;-74
2022/11/12 07:19:15;;;;;;;2.37;1.50;;;;;7.90;95430.00;;;;7393436;19;20211;-73
2022/11/12 07:21:43;;;;;;;2.53;1.80;;;;;7.90;95431.00;;;;7386423;19;20510;-74
2022/11/12 07:24:10;;;;;;;0.83;0.67;;;;;8.10;95436.00;;;;7388665;19;20121;-74
2022/11/12 07:26:44;;;;;;;1.87;1.00;;;;;8.30;95429.00;;;;7391720;19;20651;-75
2022/11/12 07:29:14;;;;;;;0.63;0.63;;;;;8.50;95437.00;;;;7393528;19;20152;-74
2022/11/12 07:32:01;;;;;;;0.70;0.70;;;;;8.70;95424.00;;;;7391330;19;20180;-74
2022/11/12 07:34:35;;;;;;;0.80;0.80;;;;;9.00;95419.00;;;;7391740;19;20147;-75
2022/11/12 07:37:02;;;;;;;0.80;0.80;;;;;9.30;95414.00;;;;7393553;19;20924;-75
2022/11/12 07:39:30;;;;;;;2.00;0.90;;;;;9.60;95419.00;;;;7394851;19;20181;-74
2022/11/12 07:42:04;;;;;;;0.70;0.70;;;;;9.70;95417.00;;;;7391249;19;20646;-74
2022/11/12 07:44:32;;;;;;;0.77;0.77;;;;;9.90;95413.00;;;;7395479;19;20129;-74
2022/11/12 07:46:59;;;;;;;1.43;1.10;;;;;10.20;95415.00;;;;7400175;19;20139;-74
2022/11/12 07:49:33;;;;;;;1.30;0.93;;;;;10.50;95416.00;;;;7397547;19;20143;-74
2022/11/12 07:52:01;;;;;;;1.20;0.95;;;;;10.80;95431.00;;;;7396299;19;20629;-73
2022/11/12 07:54:29;;;;;;;0.88;0.65;;;;;11.20;95424.00;;;;7400609;19;20248;-74
2022/11/12 07:57:03;;;;;;;0.80;0.75;;;;;11.70;95419.00;;;;7394094;19;20449;-75
2022/11/12 07:59:38;;;;;;;2.17;0.80;;;;;12.00;95420.00;;;;7395422;19;20177;-74
2022/11/12 08:02:19;;;;;;;0.65;0.65;;;;;11.60;95409.00;;;;7394022;19;20629;-74
2022/11/12 08:04:46;;;;;;;0.85;0.80;;;;;11.30;95406.00;;;;7392279;19;20623;-74
2022/11/12 08:07:20;;;;;;;1.27;0.80;;;;;11.40;95400.00;;;;7392176;19;20143;-74
2022/11/12 08:09:48;;;;;;;0.70;0.70;;;;;11.60;95410.00;;;;7392095;19;20141;-74
2022/11/12 08:12:16;;;;;;;1.13;0.75;;;;;12.00;95414.00;;;;7391286;19;20591;-74
2022/11/12 08:14:50;;;;;;;0.65;0.40;;;;;12.30;95417.00;;;;7391179;19;20493;-75
2022/11/12 08:17:18;;;;;;;1.10;0.70;;;;;13.00;95415.00;;;;7393520;19;20588;-74
2022/11/12 08:19:45;;;;;;;0.60;0.60;;;;;13.10;95405.00;;;;7395576;19;20206;-74
2022/11/12 08:22:20;;;;;;;1.08;0.50;;;;;13.40;95414.00;;;;7384826;19;20152;-74
2022/11/12 08:24:48;;;;;;;2.65;0.80;;;;;13.50;95406.00;;;;7393395;19;20145;-75
2022/11/12 08:27:15;;;;;;;0.88;0.73;;;;;13.70;95407.00;;;;7391740;19;20222;-75
2022/11/12 08:29:49;;;;;;;3.33;0.60;;;;;14.10;95402.00;;;;7396408;19;20486;-75
2022/11/12 08:32:16;;;;;;;1.65;0.60;;;;;14.20;95403.00;;;;7389176;19;20203;-75
2022/11/12 08:34:44;;;;;;;0.80;0.70;;;;;14.10;95404.00;;;;7389920;19;20129;-75
2022/11/12 08:37:18;;;;;;;0.93;0.80;;;;;14.80;95398.00;;;;7388291;19;20140;-75
2022/11/12 08:39:45;;;;;;;0.60;0.60;;;;;15.40;95406.00;;;;7391797;19;20159;-75
2022/11/12 08:42:13;;;;;;;0.55;0.55;;;;;16.10;95408.00;;;;7391340;19;20607;-74
2022/11/12 08:44:47;;;;;;;0.68;0.68;;;;;16.40;95391.00;;;;7396480;19;20473;-74
2022/11/12 08:47:14;;;;;;;0.65;0.60;;;;;16.30;95399.00;;;;7396144;19;20135;-74
2022/11/12 08:49:42;;;;;;;0.80;0.70;;;;;16.80;95402.00;;;;7396714;19;20129;-74
2022/11/12 08:52:16;;;;;;;4.25;0.80;;;;;16.70;95403.00;;;;7394738;19;20140;-74
2022/11/12 08:54:43;;;;;;;0.60;0.60;;;;;17.30;95408.00;;;;7391025;19;20188;-75
2022/11/12 08:57:11;;;;;;;0.68;0.68;;;;;17.30;95404.00;;;;7397730;19;20602;-75
2022/11/12 08:59:52;;;;;;;0.63;0.63;;;;;17.50;95406.00;;;;7393163;19;20173;-74
2022/11/12 09:02:26;;;;;;;0.60;0.60;;;;;17.30;95408.00;;;;7394016;19;20149;-75
2022/11/12 09:05:00;;;;;;;0.60;0.60;;;;;17.20;95403.00;;;;7396904;19;20841;-74
2022/11/12 09:07:30;;;;;;;0.88;0.65;;;;;17.30;95401.00;;;;7395451;19;20172;-74
2022/11/12 09:10:25;;;;;;;0.93;0.50;;;;;17.40;95404.00;;;;7389310;19;20495;-74
2022/11/12 09:13:00;;;;;;;1.45;0.75;;;;;18.00;95403.00;;;;7394633;19;20654;-73
2022/11/12 09:15:28;;;;;;;0.47;0.47;;;;;18.30;95408.00;;;;7394714;19;20240;-74
2022/11/12 09:18:07;;;;;;;0.80;0.80;;;;;18.40;95402.00;;;;7394458;19;20587;-74
2022/11/12 09:20:41;;;;;;;0.60;0.60;;;;;18.40;95398.00;;;;7394912;19;20495;-74
2022/11/12 09:23:11;;;;;;;0.60;0.60;;;;;18.50;95401.00;;;;7387691;19;20292;-74
2022/11/12 09:25:41;;;;;;;0.60;0.60;;;;;18.80;95403.00;;;;7390646;19;20139;-74
2022/11/12 09:28:17;;;;;;;0.60;0.60;;;;;19.50;95403.00;;;;7394033;19;20164;-75
2022/11/12 09:30:46;;;;;;;0.70;0.70;;;;;20.00;95399.00;;;;7391694;19;20133;-75
2022/11/12 09:33:17;;;;;;;0.82;0.70;;;;;19.50;95406.00;;;;7389692;19;20639;-75
2022/11/12 09:35:53;;;;;;;0.80;0.80;;;;;19.90;95400.00;;;;7392910;19;20847;-75
2022/11/12 09:38:23;;;;;;;1.50;1.00;;;;;19.50;95402.00;;;;7391065;19;20132;-76
2022/11/12 09:41:33;;;;;;;0.98;0.88;;;;;19.10;95401.00;;;;7393562;19;20152;-75
2022/11/12 09:44:23;;;;;;;0.73;0.73;;;;;18.80;95410.00;;;;7392140;19;20157;-75
2022/11/12 09:47:14;;;;;;;1.20;1.10;;;;;19.90;95401.00;;;;7390802;19;20156;-75
2022/11/12 09:50:14;;;;;;;1.20;1.10;;;;;19.80;95398.00;;;;7393106;19;20156;-74
2022/11/12 09:52:45;;;;;;;0.95;0.80;;;;;20.10;95402.00;;;;7390978;19;20140;-76
2022/11/12 09:55:33;;;;;;;4.55;1.33;;;;;19.60;95398.00;;;;7388078;19;20180;-75
2022/11/12 09:58:11;;;;;;;1.52;1.10;;;;;20.10;95398.00;;;;7394324;19;20136;-74
2022/11/12 10:01:05;;;;;;;1.10;1.10;;;;;20.90;95386.00;;;;7390667;19;20248;-73
2022/11/12 10:04:14;;;;;;;1.08;1.08;;;;;21.20;95390.00;;;;7392552;19;20137;-73
2022/11/12 10:07:12;;;;;;;1.10;1.00;;;;;19.80;95389.00;;;;7390661;19;20155;-74
2022/11/12 10:09:43;;;;;;;1.17;1.08;;;;;20.90;95384.00;;;;7393675;19;20160;-76
2022/11/12 10:12:42;;;;;;;0.80;0.80;;;;;21.40;95389.00;;;;7393516;19;20151;-75
2022/11/12 10:18:57;;;;;;;1.77;0.75;;;;;20.80;95389.00;;;;7392224;19;20651;-75
2022/11/12 10:21:41;;;;;;;1.05;0.90;;;;;21.40;95384.00;;;;7393581;19;20156;-75
2022/11/12 10:24:24;;;;;;;0.80;0.80;;;;;22.10;95389.00;;;;7390988;19;20754;-76
2022/11/12 10:26:55;;;;;;;0.70;0.57;;;;;21.90;95395.00;;;;7393186;19;20173;-75
2022/11/12 10:29:45;;;;;;;0.73;0.73;;;;;22.10;95387.00;;;;7389661;19;20469;-75
2022/11/12 10:32:15;;;;;;;1.25;0.63;;;;;22.10;95385.00;;;;7387650;19;20709;-75
2022/11/12 10:34:57;;;;;;;0.75;0.75;;;;;21.90;95388.00;;;;7384853;19;20147;-75
2022/11/12 10:37:51;;;;;;;1.10;0.88;;;;;21.20;95381.00;;;;7385998;19;20157;-74
2022/11/12 10:40:39;;;;;;;1.05;0.90;;;;;20.50;95377.00;;;;7387242;19;20152;-75
2022/11/12 10:43:16;;;;;;;0.90;0.90;;;;;20.30;95382.00;;;;7380310;19;20164;-75
2022/11/12 10:46:11;;;;;;;1.55;1.10;;;;;19.90;95384.00;;;;7386851;19;20152;-75
2022/11/12 10:48:55;;;;;;;1.10;1.00;;;;;21.40;95374.00;;;;7386060;19;20627;-74
2022/11/12 10:51:37;;;;;;;2.25;2.00;;;;;22.00;95374.00;;;;7391416;19;20569;-75
2022/11/12 10:54:31;;;;;;;1.45;1.33;;;;;21.90;95376.00;;;;7391250;19;20245;-73
2022/11/12 10:57:23;;;;;;;3.25;2.35;;;;;21.60;95374.00;;;;7387218;19;20159;-75
2022/11/12 11:00:19;;;;;;;4.65;2.47;;;;;21.00;95386.00;;;;7387391;19;20187;-75
2022/11/12 11:03:15;;;;;;;5.05;2.38;;;;;20.60;95383.00;;;;7389607;19;20132;-74
2022/11/12 11:06:04;;;;;;;4.15;3.10;;;;;19.90;95384.00;;;;7382090;19;20137;-74
2022/11/12 11:08:52;;;;;;;3.70;2.97;;;;;19.40;95387.00;;;;7388035;19;20175;-76
2022/11/12 11:11:26;;;;;;;3.20;2.47;;;;;19.30;95387.00;;;;7389356;19;20783;-75
2022/11/12 11:14:22;;;;;;;8.07;3.55;;;;;18.90;95390.00;;;;7386953;19;20148;-74
2022/11/12 11:17:07;;;;;;;4.35;3.40;;;;;18.80;95397.00;;;;7388760;19;20153;-73
2022/11/12 11:19:42;;;;;;;4.63;3.10;;;;;18.60;95392.00;;;;7390810;19;20151;-73
2022/11/12 11:22:19;;;;;;;3.35;3.05;;;;;18.60;95390.00;;;;7390088;19;20149;-74
2022/11/12 11:25:11;;;;;;;5.45;3.10;;;;;18.40;95394.00;;;;7386099;19;20494;-74
2022/11/12 11:27:42;;;;;;;4.40;2.60;;;;;18.10;95391.00;;;;7386091;19;20613;-74
2022/11/12 11:30:19;;;;;;;3.20;2.88;;;;;17.60;95389.00;;;;7392870;19;20164;-74
2022/11/12 11:33:19;;;;;;;7.10;3.17;;;;;17.90;95383.00;;;;7389329;19;20196;-75
2022/11/12 11:36:20;;;;;;;3.80;3.10;;;;;18.00;95381.00;;;;7390627;19;20160;-73
2022/11/12 11:39:04;;;;;;;2.85;2.42;;;;;17.80;95377.00;;;;7391551;19;20160;-75
2022/11/12 11:42:22;;;;;;;3.75;2.50;;;;;17.70;95383.00;;;;7389232;19;20153;-75
2022/11/12 11:44:56;;;;;;;4.65;2.38;;;;;17.70;95384.00;;;;7389749;19;20603;-73
2022/11/12 11:47:53;;;;;;;3.70;2.47;;;;;17.60;95388.00;;;;7390313;19;20152;-74
2022/11/12 11:50:51;;;;;;;4.35;2.58;;;;;17.30;95375.00;;;;7390991;19;20192;-75
2022/11/12 11:54:04;;;;;;;2.75;2.40;;;;;17.00;95378.00;;;;7392060;19;20212;-74
2022/11/12 11:56:44;;;;;;;4.05;2.88;;;;;17.50;95374.00;;;;7390442;19;20152;-74
2022/11/12 12:00:24;;;;;;;5.13;3.22;;;;;17.70;95370.00;;;;7391296;19;20478;-74
2022/11/12 12:03:18;;;;;;;3.97;3.05;;;;;17.80;95366.00;;;;7388085;19;20133;-74
2022/11/12 12:06:18;;;;;;;3.13;2.83;;;;;17.60;95368.00;;;;7387958;19;20129;-73
2022/11/12 12:09:16;;;;;;;3.75;3.28;;;;;17.40;95368.00;;;;7390629;19;20464;-73
2022/11/12 12:12:02;;;;;;;2.70;2.50;;;;;17.90;95364.00;;;;7388837;19;20148;-73
2022/11/12 12:14:55;;;;;;;8.25;3.30;;;;;17.90;95374.00;;;;7389261;19;20160;-74
2022/11/12 12:17:43;;;;;;;5.72;3.15;;;;;18.10;95374.00;;;;7390949;19;20952;-74
2022/11/12 12:20:41;;;;;;;3.55;2.97;;;;;17.70;95377.00;;;;7392218;19;20623;-74
2022/11/12 12:23:38;;;;;;;3.80;3.08;;;;;17.80;95375.00;;;;7387749;19;20153;-75
2022/11/12 12:26:13;;;;;;;6.13;2.97;;;;;17.40;95376.00;;;;7390972;19;20143;-73
2022/11/12 12:29:01;;;;;;;4.35;2.70;;;;;16.60;95376.00;;;;7398017;19;20129;-73
2022/11/12 12:31:36;;;;;;;2.72;2.47;;;;;16.90;95366.00;;;;7395215;19;20176;-75
2022/11/12 12:34:25;;;;;;;3.72;2.85;;;;;16.50;95369.00;;;;7396143;19;20163;-74
2022/11/12 12:37:05;;;;;;;3.75;2.42;;;;;16.40;95360.00;;;;7393391;19;20173;-74
2022/11/12 12:40:04;;;;;;;4.25;2.83;;;;;15.90;95365.00;;;;7395904;19;20152;-74
2022/11/12 12:42:47;;;;;;;4.68;2.70;;;;;15.60;95364.00;;;;7395393;19;20152;-74
2022/11/12 12:45:44;;;;;;;3.25;2.80;;;;;15.30;95363.00;;;;7395039;19;20650;-73
2022/11/12 12:48:26;;;;;;;5.72;2.70;;;;;15.10;95359.00;;;;7391353;19;20188;-75
2022/11/12 12:51:01;;;;;;;3.42;2.80;;;;;14.90;95355.00;;;;7396365;19;20164;-74
2022/11/12 12:53:30;;;;;;;10.05;3.00;;;;;14.90;95355.00;;;;7394257;19;20165;-74
2022/11/12 12:56:25;;;;;;;4.50;2.47;;;;;15.00;95345.00;;;;7394321;19;20140;-75
2022/11/12 12:59:04;;;;;;;3.60;2.60;;;;;14.90;95340.00;;;;7394803;19;20132;-75
2022/11/12 13:01:38;;;;;;;3.03;2.72;;;;;15.10;95336.00;;;;7388500;19;20168;-75
2022/11/12 13:04:12;;;;;;;2.88;2.58;;;;;15.30;95324.00;;;;7393165;19;20706;-74
2022/11/12 13:06:46;;;;;;;4.13;3.08;;;;;15.10;95329.00;;;;7398476;19;20141;-75
2022/11/12 13:09:26;;;;;;;3.75;3.30;;;;;14.70;95330.00;;;;7393391;19;20147;-74
2022/11/12 13:14:37;;;;;;;3.42;3.13;;;;;14.80;95341.00;;;;7393543;19;20646;-75
2022/11/12 13:17:12;;;;;;;3.38;3.08;;;;;14.80;95331.00;;;;7398171;19;20140;-75
2022/11/12 13:20:09;;;;;;;4.57;3.30;;;;;14.80;95324.00;;;;7397400;19;20145;-75
2022/11/12 13:22:40;;;;;;;3.28;2.97;;;;;15.00;95331.00;;;;7395241;19;21913;-76
2022/11/12 13:25:14;;;;;;;5.75;3.30;;;;;14.70;95335.00;;;;7391367;19;20607;-76
2022/11/12 13:27:43;;;;;;;3.75;3.20;;;;;14.40;95329.00;;;;7388761;19;20253;-76
2022/11/12 13:30:17;;;;;;;3.90;3.50;;;;;14.40;95333.00;;;;7393401;19;20152;-75
2022/11/12 13:32:51;;;;;;;3.97;3.33;;;;;14.20;95331.00;;;;7394407;19;20908;-76